首页
METAR-TAF:

METAR-TAF

机场 :

Red Wing Regional Airport

Red Wing, 明尼蘇達州, 美国

纬度: 44-35-25N, 经度: 092-29-10W, 海拔: 239米

当前天气观测

该预报发布于13分钟前的18:55 UTC
风速9节,风向,有时为18节阵风
温度 8°C
湿度 81%
气压 1004 hPa
能見度: 16.1公里
多云层高于1600英尺
阴天层高于2200英尺

METAR: KRGK 281855Z AUTO 09009G18KT 10SM BKN016 OVC022 08/05 A2964 RMK AO2

时间: 14:08 (19:08 UTC)


TAF: 丢失

超过4000个机场的气象观测和天气预报(METAR&TAF报告)。

可查询的气象台以黄色和红色小点在地图上表示。

将鼠标移到小点上方,可查看气象台名称。

然后点击查看天气观测和预报。

如需切换地图:点击带黑十字的绿色按钮放大地图;点击带横线的绿色按钮缩小地图;或者点击绿色箭头查看邻近地区的地图。


METAR-TAF: